Time;durP1;ratioP1;P1;durP2;ratioP2;P2;SDS_P1;SDS_P2;PMS_P1;PMS_P2;Temp;Humidity;BMP_temperature;BMP_pressure;BME280_temperature;BME280_humidity;BME280_pressure;Samples;Min_cycle;Max_cycle;Signal;HPM_P1;HPM_P2
2023/04/30 00:00:09;;;;;;;0.10;0.10;;;11.40;99.90;;;;;;5053736;28;20031;-74
2023/04/30 00:02:36;;;;;;;0.10;0.10;;;11.30;99.90;;;;;;5054118;28;20056;-74
2023/04/30 00:05:02;;;;;;;0.20;0.20;;;11.30;99.90;;;;;;5038979;28;20059;-74
2023/04/30 00:07:27;;;;;;;0.30;0.30;;;11.30;99.90;;;;;;5054305;28;20028;-74
2023/04/30 00:09:53;;;;;;;0.52;0.52;;;11.20;99.90;;;;;;5035802;28;20020;-74
2023/04/30 00:12:19;;;;;;;0.10;0.10;;;11.00;99.90;;;;;;5053260;28;20017;-73
2023/04/30 00:14:45;;;;;;;0.30;0.30;;;11.00;99.90;;;;;;5033723;28;20378;-73
2023/04/30 00:17:11;;;;;;;0.10;0.10;;;11.00;99.90;;;;;;5053385;28;20112;-73
2023/04/30 00:19:37;;;;;;;0.00;0.00;;;10.90;99.90;;;;;;5053346;28;20087;-73
2023/04/30 00:22:04;;;;;;;0.10;0.10;;;10.90;99.90;;;;;;5053352;28;20142;-73
2023/04/30 00:24:30;;;;;;;0.20;0.20;;;11.00;99.90;;;;;;5053399;28;20399;-74
2023/04/30 00:26:56;;;;;;;0.10;0.10;;;10.90;99.90;;;;;;5053030;28;20104;-74
2023/04/30 00:29:22;;;;;;;0.00;0.00;;;10.80;99.90;;;;;;5053460;28;20103;-74
2023/04/30 00:31:47;;;;;;;0.55;0.55;;;11.10;99.90;;;;;;5053186;28;20028;-73
2023/04/30 00:34:14;;;;;;;0.00;0.00;;;11.00;99.90;;;;;;5053366;28;20385;-74
2023/04/30 00:36:40;;;;;;;0.10;0.10;;;10.90;99.90;;;;;;5031918;28;20025;-74
2023/04/30 00:39:06;;;;;;;0.22;0.22;;;10.80;99.90;;;;;;5052611;28;20045;-74
2023/04/30 00:41:34;;;;;;;0.00;0.00;;;10.80;99.90;;;;;;5053003;28;20033;-73
2023/04/30 00:44:01;;;;;;;0.03;0.03;;;10.70;99.90;;;;;;5049275;28;20525;-74
2023/04/30 00:46:27;;;;;;;0.10;0.10;;;10.70;99.90;;;;;;5033049;28;20045;-73
2023/04/30 00:48:53;;;;;;;0.10;0.10;;;10.90;99.90;;;;;;5030292;28;20108;-73
2023/04/30 00:51:19;;;;;;;0.10;0.10;;;11.00;99.90;;;;;;5052555;28;20470;-74
2023/04/30 00:53:45;;;;;;;0.40;0.25;;;11.10;99.90;;;;;;5035024;28;20025;-74
2023/04/30 00:56:15;;;;;;;0.10;0.10;;;11.00;99.90;;;;;;5052435;28;20025;-73
2023/04/30 00:58:41;;;;;;;0.90;0.90;;;11.10;99.90;;;;;;5031781;28;20021;-75
2023/04/30 01:01:07;;;;;;;0.10;0.10;;;11.00;99.90;;;;;;5029833;28;20041;-73
2023/04/30 01:03:34;;;;;;;0.05;0.05;;;10.90;99.90;;;;;;5034850;28;20021;-74
2023/04/30 01:06:02;;;;;;;0.10;0.10;;;10.90;99.90;;;;;;5052746;28;20127;-73
2023/04/30 01:08:29;;;;;;;0.43;0.43;;;10.80;99.90;;;;;;5031251;28;20532;-73
2023/04/30 01:11:16;;;;;;;1.27;0.95;;;10.70;99.90;;;;;;5044310;28;20029;-73
2023/04/30 01:14:07;;;;;;;0.20;0.20;;;10.50;99.90;;;;;;5034704;28;20057;-73
2023/04/30 01:16:39;;;;;;;0.10;0.10;;;10.40;99.90;;;;;;5052229;28;20049;-73
2023/04/30 01:19:19;;;;;;;0.10;0.10;;;10.30;99.90;;;;;;5052718;28;20072;-73
2023/04/30 01:21:46;;;;;;;0.10;0.10;;;10.30;99.90;;;;;;5034437;28;20071;-74
2023/04/30 01:24:53;;;;;;;0.10;0.10;;;10.20;99.90;;;;;;5031297;28;20526;-74
2023/04/30 01:27:50;;;;;;;0.10;0.10;;;9.90;99.90;;;;;;5039275;28;20032;-74
2023/04/30 01:30:17;;;;;;;0.30;0.30;;;9.90;99.90;;;;;;5031437;28;20037;-74
2023/04/30 01:32:43;;;;;;;0.10;0.10;;;10.00;99.90;;;;;;5041538;28;20040;-74
2023/04/30 01:35:09;;;;;;;0.25;0.25;;;10.10;99.90;;;;;;5052211;28;20037;-73
2023/04/30 01:38:02;;;;;;;0.10;0.10;;;10.20;99.90;;;;;;5031258;28;20381;-73
2023/04/30 01:40:31;;;;;;;0.25;0.25;;;10.10;99.90;;;;;;5014006;28;20118;-74
2023/04/30 01:43:04;;;;;;;0.32;0.25;;;10.10;99.90;;;;;;5051034;28;20063;-74
2023/04/30 01:45:49;;;;;;;0.30;0.30;;;10.10;99.90;;;;;;5049955;28;20025;-74
2023/04/30 01:48:26;;;;;;;0.28;0.25;;;10.10;99.90;;;;;;5052172;28;20029;-74
2023/04/30 01:51:07;;;;;;;0.30;0.30;;;10.10;99.90;;;;;;5047405;28;20018;-74
2023/04/30 01:53:42;;;;;;;0.50;0.50;;;10.20;99.90;;;;;;5076661;28;20390;-73
2023/04/30 01:56:26;;;;;;;8.68;2.33;;;10.30;99.90;;;;;;5049515;28;20041;-73
2023/04/30 01:58:53;;;;;;;0.10;0.10;;;9.90;99.90;;;;;;5047427;28;20036;-73
2023/04/30 02:01:30;;;;;;;0.88;0.80;;;9.90;99.90;;;;;;5047574;28;20021;-74
2023/04/30 02:03:56;;;;;;;0.10;0.10;;;10.00;99.90;;;;;;5052170;28;20029;-73
2023/04/30 02:06:28;;;;;;;0.22;0.22;;;10.20;99.90;;;;;;5049609;28;20032;-73
2023/04/30 02:08:55;;;;;;;0.10;0.10;;;10.10;99.90;;;;;;5047346;28;20033;-74
2023/04/30 02:11:24;;;;;;;1.40;1.10;;;10.00;99.90;;;;;;5047242;28;20025;-73
2023/04/30 02:13:50;;;;;;;3.60;1.17;;;10.00;99.90;;;;;;5051978;28;20099;-73
2023/04/30 02:16:16;;;;;;;3.97;1.50;;;10.20;99.90;;;;;;5055165;28;20019;-73
2023/04/30 02:18:42;;;;;;;0.85;0.85;;;10.10;99.90;;;;;;5071893;28;20036;-73
2023/04/30 02:21:07;;;;;;;0.10;0.10;;;9.90;99.90;;;;;;5071878;28;20060;-73
2023/04/30 02:23:33;;;;;;;0.10;0.10;;;10.00;99.90;;;;;;5070589;28;20071;-74
2023/04/30 02:26:01;;;;;;;0.10;0.10;;;10.20;99.90;;;;;;5072011;28;20116;-73
2023/04/30 02:28:27;;;;;;;0.50;0.50;;;10.30;99.90;;;;;;5072797;28;20025;-74
2023/04/30 02:30:53;;;;;;;0.28;0.28;;;10.10;99.90;;;;;;5074445;28;20033;-73
2023/04/30 02:33:19;;;;;;;3.45;1.60;;;10.20;99.90;;;;;;5075227;28;20040;-73
2023/04/30 02:35:45;;;;;;;0.10;0.10;;;9.90;99.90;;;;;;5074229;28;20534;-74
2023/04/30 02:38:11;;;;;;;0.60;0.60;;;9.70;99.90;;;;;;5075050;28;20472;-74
2023/04/30 02:40:37;;;;;;;0.50;0.50;;;9.80;99.90;;;;;;5074086;28;20115;-73
2023/04/30 02:43:05;;;;;;;0.10;0.10;;;9.70;99.90;;;;;;5075344;28;20094;-74
2023/04/30 02:45:31;;;;;;;0.10;0.10;;;9.90;99.90;;;;;;5074037;28;20024;-74
2023/04/30 02:47:58;;;;;;;0.20;0.20;;;9.90;99.90;;;;;;5075331;28;20098;-73
2023/04/30 02:50:24;;;;;;;0.10;0.10;;;9.70;99.90;;;;;;5074999;28;20040;-73
2023/04/30 02:52:49;;;;;;;0.10;0.10;;;9.70;99.90;;;;;;5073613;28;20554;-73
2023/04/30 02:55:16;;;;;;;0.10;0.10;;;9.80;99.90;;;;;;5056918;28;20025;-74
2023/04/30 02:57:42;;;;;;;0.10;0.10;;;9.80;99.90;;;;;;5075285;28;20103;-74
2023/04/30 03:00:08;;;;;;;0.17;0.17;;;9.90;99.90;;;;;;5074874;28;20520;-74
2023/04/30 03:02:35;;;;;;;0.20;0.20;;;9.90;99.90;;;;;;5073714;28;20024;-74
2023/04/30 03:05:02;;;;;;;0.10;0.10;;;10.00;99.90;;;;;;5056982;28;20492;-74
2023/04/30 03:07:29;;;;;;;0.75;0.75;;;10.00;99.90;;;;;;5074676;28;20423;-73
2023/04/30 03:09:54;;;;;;;0.30;0.30;;;9.80;99.90;;;;;;5107085;28;20078;-73
2023/04/30 03:12:20;;;;;;;0.10;0.10;;;9.70;99.90;;;;;;5073372;28;20400;-73
2023/04/30 03:14:46;;;;;;;0.25;0.25;;;9.80;99.90;;;;;;5072857;28;20032;-74
2023/04/30 03:17:12;;;;;;;0.10;0.10;;;9.90;99.90;;;;;;5073214;28;20013;-73
2023/04/30 03:19:38;;;;;;;0.10;0.10;;;10.00;99.90;;;;;;5074610;28;20548;-73
2023/04/30 03:22:04;;;;;;;0.10;0.10;;;10.20;99.90;;;;;;5074722;28;20024;-74
2023/04/30 03:24:30;;;;;;;0.10;0.10;;;10.20;99.90;;;;;;5073313;28;20044;-73
2023/04/30 03:26:55;;;;;;;0.20;0.20;;;10.10;99.90;;;;;;5073364;28;20114;-73
2023/04/30 03:29:21;;;;;;;0.15;0.15;;;9.80;99.90;;;;;;5073000;28;20020;-73
2023/04/30 03:31:47;;;;;;;1.55;1.45;;;9.60;99.90;;;;;;5072180;28;20490;-73
2023/04/30 03:34:13;;;;;;;0.30;0.30;;;9.70;99.90;;;;;;5073038;28;20040;-73
2023/04/30 03:36:39;;;;;;;0.32;0.32;;;9.70;99.90;;;;;;5072884;28;20032;-74
2023/04/30 03:39:07;;;;;;;0.17;0.17;;;9.90;99.90;;;;;;5072038;28;20032;-73
2023/04/30 03:41:33;;;;;;;0.10;0.10;;;10.00;99.90;;;;;;5072651;28;20024;-73
2023/04/30 03:43:59;;;;;;;0.10;0.10;;;9.80;99.90;;;;;;5074203;28;20447;-73
2023/04/30 03:46:25;;;;;;;0.10;0.10;;;9.70;99.90;;;;;;5073882;28;20048;-74
2023/04/30 03:48:51;;;;;;;0.38;0.38;;;9.70;99.90;;;;;;5073030;28;20043;-73
2023/04/30 03:51:19;;;;;;;0.10;0.10;;;9.50;99.90;;;;;;5073751;28;20142;-73
2023/04/30 03:53:45;;;;;;;0.10;0.10;;;9.50;99.90;;;;;;5072538;28;20032;-74
2023/04/30 03:56:11;;;;;;;0.00;0.00;;;9.30;99.90;;;;;;5072566;28;20036;-73
2023/04/30 03:58:37;;;;;;;0.10;0.10;;;9.40;99.90;;;;;;5072693;28;20384;-74
2023/04/30 04:01:03;;;;;;;0.52;0.52;;;9.40;99.90;;;;;;5049676;28;20021;-73
2023/04/30 04:03:29;;;;;;;0.57;0.57;;;9.30;99.90;;;;;;5071410;28;20028;-73
2023/04/30 04:05:55;;;;;;;0.17;0.17;;;9.20;99.90;;;;;;5055740;28;20069;-73
2023/04/30 04:08:21;;;;;;;0.63;0.63;;;9.20;99.90;;;;;;5055979;28;20032;-73
2023/04/30 04:10:47;;;;;;;0.10;0.10;;;9.10;99.90;;;;;;5072447;28;20107;-73
2023/04/30 04:13:13;;;;;;;0.10;0.10;;;9.10;99.90;;;;;;5071904;28;20032;-73
2023/04/30 04:15:39;;;;;;;0.10;0.10;;;9.00;99.90;;;;;;5071472;28;20039;-74
2023/04/30 04:18:07;;;;;;;0.10;0.10;;;9.20;99.90;;;;;;5071271;28;20039;-73
2023/04/30 04:20:33;;;;;;;0.10;0.10;;;9.30;99.90;;;;;;5055528;28;20027;-74
2023/04/30 04:22:59;;;;;;;0.10;0.10;;;9.30;99.90;;;;;;5072088;28;20386;-74
2023/04/30 04:25:24;;;;;;;1.10;1.10;;;9.30;99.90;;;;;;5071778;28;20039;-73
2023/04/30 04:27:51;;;;;;;0.20;0.20;;;9.30;99.90;;;;;;5072305;28;20070;-74
2023/04/30 04:30:17;;;;;;;1.75;1.30;;;9.40;99.90;;;;;;5072059;28;20028;-73
2023/04/30 04:32:49;;;;;;;0.10;0.10;;;9.30;99.90;;;;;;5071501;28;20170;-74
2023/04/30 04:35:15;;;;;;;0.10;0.10;;;9.50;99.90;;;;;;5071754;28;20366;-74
2023/04/30 04:37:41;;;;;;;0.10;0.10;;;9.60;99.90;;;;;;5071667;28;20457;-74
2023/04/30 04:40:09;;;;;;;0.10;0.10;;;9.50;99.90;;;;;;5071837;28;20044;-73
2023/04/30 04:42:35;;;;;;;4.25;1.05;;;9.50;99.90;;;;;;5071638;28;20468;-73
2023/04/30 04:45:02;;;;;;;0.10;0.10;;;9.50;99.90;;;;;;5071867;28;20024;-73
2023/04/30 04:47:29;;;;;;;0.57;0.57;;;9.60;99.90;;;;;;5071446;28;20473;-74
2023/04/30 04:49:55;;;;;;;0.40;0.40;;;9.60;99.90;;;;;;5072929;28;20025;-73
2023/04/30 04:52:20;;;;;;;0.40;0.40;;;9.60;99.90;;;;;;5071542;28;20437;-74
2023/04/30 04:54:46;;;;;;;5.07;2.20;;;9.80;99.90;;;;;;5071405;28;20085;-73
2023/04/30 04:57:12;;;;;;;1.20;1.17;;;9.60;99.90;;;;;;5071426;28;20032;-74
2023/04/30 04:59:38;;;;;;;0.10;0.10;;;9.70;99.90;;;;;;5071713;28;20550;-74
2023/04/30 05:02:04;;;;;;;2.00;1.90;;;9.60;99.90;;;;;;5071366;28;20527;-73
2023/04/30 05:04:30;;;;;;;0.25;0.25;;;9.40;99.90;;;;;;5054703;28;20047;-73
2023/04/30 05:06:55;;;;;;;0.45;0.45;;;9.20;99.90;;;;;;5054862;28;20017;-73
2023/04/30 05:09:21;;;;;;;0.30;0.30;;;9.30;99.90;;;;;;5072887;28;20036;-73
2023/04/30 05:11:48;;;;;;;5.05;0.68;;;9.40;99.90;;;;;;5072411;28;20019;-74
2023/04/30 05:14:14;;;;;;;0.30;0.30;;;9.50;99.90;;;;;;5072687;28;20067;-74
2023/04/30 05:16:39;;;;;;;0.30;0.30;;;9.80;99.90;;;;;;5072090;28;20073;-73
2023/04/30 05:19:06;;;;;;;0.10;0.10;;;9.90;99.90;;;;;;5071388;28;20440;-73
2023/04/30 05:21:31;;;;;;;0.10;0.10;;;10.00;99.90;;;;;;5072751;28;20051;-74
2023/04/30 05:23:57;;;;;;;0.10;0.10;;;9.90;99.90;;;;;;5071269;28;20025;-73
2023/04/30 05:26:23;;;;;;;0.10;0.10;;;9.80;99.90;;;;;;5072634;28;20024;-73
2023/04/30 05:28:50;;;;;;;0.20;0.20;;;9.90;99.90;;;;;;5072306;28;20454;-74
2023/04/30 05:31:16;;;;;;;0.50;0.40;;;10.00;99.90;;;;;;5072235;28;20099;-73
2023/04/30 05:33:42;;;;;;;0.10;0.10;;;9.90;99.90;;;;;;5071226;28;20116;-73
2023/04/30 05:36:09;;;;;;;0.10;0.10;;;10.00;99.90;;;;;;5072402;28;20033;-73
2023/04/30 05:38:35;;;;;;;0.10;0.10;;;10.00;99.90;;;;;;5072578;28;20028;-74
2023/04/30 05:41:01;;;;;;;0.10;0.10;;;10.20;99.90;;;;;;5071935;28;20389;-74
2023/04/30 05:43:27;;;;;;;0.10;0.10;;;10.40;99.90;;;;;;5072429;28;20075;-73
2023/04/30 05:45:52;;;;;;;0.25;0.25;;;10.50;99.90;;;;;;5054221;28;20047;-73
2023/04/30 05:48:18;;;;;;;3.03;2.30;;;10.60;99.90;;;;;;5072378;28;20016;-73
2023/04/30 05:50:44;;;;;;;2.00;1.13;;;10.40;99.90;;;;;;5054273;28;20033;-73
2023/04/30 05:53:10;;;;;;;0.20;0.20;;;10.40;99.90;;;;;;5071954;28;20020;-73
2023/04/30 05:55:36;;;;;;;26.77;1.60;;;10.40;99.90;;;;;;5058033;28;20385;-74
2023/04/30 05:58:01;;;;;;;0.25;0.25;;;10.30;99.90;;;;;;5018544;28;20748;-73
2023/04/30 06:00:27;;;;;;;0.65;0.65;;;10.30;99.90;;;;;;5067390;28;20025;-73
2023/04/30 06:02:53;;;;;;;2.97;1.40;;;10.10;99.90;;;;;;5065260;28;20140;-73
2023/04/30 06:05:19;;;;;;;0.80;0.73;;;10.10;99.90;;;;;;5060358;28;20035;-73
2023/04/30 06:07:45;;;;;;;0.57;0.57;;;10.10;99.90;;;;;;5057911;28;20036;-74
2023/04/30 06:10:11;;;;;;;0.20;0.20;;;10.20;99.90;;;;;;5057553;28;20167;-74
2023/04/30 06:12:38;;;;;;;0.30;0.30;;;10.50;99.90;;;;;;5052611;28;20032;-73
2023/04/30 06:15:05;;;;;;;0.55;0.52;;;10.80;99.90;;;;;;5064255;28;20044;-73
2023/04/30 06:17:31;;;;;;;0.80;0.65;;;10.90;99.90;;;;;;5059224;28;20114;-73
2023/04/30 06:19:59;;;;;;;0.40;0.40;;;10.80;99.90;;;;;;5054874;28;20465;-74
2023/04/30 06:22:25;;;;;;;0.17;0.17;;;10.80;99.90;;;;;;5060003;28;20027;-73
2023/04/30 06:24:51;;;;;;;0.52;0.52;;;11.00;99.90;;;;;;5042937;28;20897;-74
2023/04/30 06:27:17;;;;;;;1.80;1.67;;;11.10;99.90;;;;;;5070568;28;20049;-74
2023/04/30 06:29:42;;;;;;;0.65;0.65;;;11.00;99.90;;;;;;5074430;28;20058;-73
2023/04/30 06:32:08;;;;;;;0.00;0.00;;;11.20;99.90;;;;;;5074579;28;20693;-74
2023/04/30 06:34:35;;;;;;;0.10;0.10;;;11.30;99.90;;;;;;5074349;28;20032;-73
2023/04/30 06:37:02;;;;;;;4.65;1.05;;;11.40;99.90;;;;;;5069762;28;20100;-74
2023/04/30 06:39:28;;;;;;;0.10;0.10;;;11.50;99.90;;;;;;5060648;28;20033;-73
2023/04/30 06:41:54;;;;;;;0.68;0.47;;;11.60;99.90;;;;;;5059840;28;20028;-73
2023/04/30 06:44:21;;;;;;;0.63;0.60;;;11.70;99.90;;;;;;5022605;28;20124;-73
2023/04/30 06:46:47;;;;;;;2.08;0.30;;;12.00;99.90;;;;;;5043859;28;20115;-74
2023/04/30 06:49:12;;;;;;;0.15;0.15;;;11.90;99.90;;;;;;5064961;28;20025;-75
2023/04/30 06:51:40;;;;;;;0.25;0.25;;;12.00;99.90;;;;;;5056432;28;20033;-74
2023/04/30 06:54:07;;;;;;;0.93;0.68;;;12.30;99.90;;;;;;5057250;28;20082;-74
2023/04/30 06:56:32;;;;;;;3.20;2.55;;;12.30;99.90;;;;;;5022903;28;20065;-74
2023/04/30 06:58:58;;;;;;;0.15;0.15;;;12.30;99.90;;;;;;5054236;28;20067;-74
2023/04/30 07:01:24;;;;;;;0.20;0.20;;;12.20;99.90;;;;;;5053867;28;20067;-74
2023/04/30 07:03:51;;;;;;;1.95;1.85;;;12.30;99.90;;;;;;5061538;28;20451;-73
2023/04/30 07:06:17;;;;;;;2.58;1.35;;;12.20;99.90;;;;;;5058388;28;20035;-73
2023/04/30 07:08:43;;;;;;;3.38;1.80;;;12.20;99.90;;;;;;5054005;28;20096;-74
2023/04/30 07:11:09;;;;;;;2.13;1.63;;;12.20;99.90;;;;;;5053251;28;20043;-74
2023/04/30 07:13:34;;;;;;;1.73;1.02;;;12.30;99.90;;;;;;5056935;28;20021;-74
2023/04/30 07:16:00;;;;;;;0.75;0.73;;;12.40;99.90;;;;;;5054955;28;20091;-74
2023/04/30 07:18:26;;;;;;;3.05;0.65;;;12.50;99.90;;;;;;5058854;28;20040;-73
2023/04/30 07:20:52;;;;;;;3.00;1.58;;;12.70;99.90;;;;;;5039382;28;20578;-74
2023/04/30 07:23:18;;;;;;;0.10;0.10;;;12.80;99.90;;;;;;5053962;28;20025;-74
2023/04/30 07:25:43;;;;;;;0.10;0.10;;;13.10;99.90;;;;;;5062899;28;20036;-73
2023/04/30 07:28:09;;;;;;;1.40;1.00;;;13.30;99.90;;;;;;5065187;28;20032;-73
2023/04/30 07:30:35;;;;;;;0.40;0.40;;;13.50;99.90;;;;;;5057874;28;20393;-74
2023/04/30 07:33:01;;;;;;;0.20;0.20;;;13.60;99.90;;;;;;5051964;28;20078;-73
2023/04/30 07:35:27;;;;;;;0.40;0.40;;;13.70;99.90;;;;;;5053077;28;20044;-73
2023/04/30 07:37:53;;;;;;;1.17;0.90;;;13.70;99.90;;;;;;5058114;28;20132;-74
2023/04/30 07:40:19;;;;;;;0.63;0.63;;;13.90;99.90;;;;;;5058060;28;20119;-74
2023/04/30 07:42:45;;;;;;;0.60;0.60;;;13.90;99.90;;;;;;5060364;28;20521;-74
2023/04/30 07:45:12;;;;;;;0.10;0.10;;;14.10;99.90;;;;;;5054846;28;20037;-74
2023/04/30 07:47:38;;;;;;;0.38;0.38;;;14.30;99.90;;;;;;5059142;28;20064;-75
2023/04/30 07:50:04;;;;;;;0.10;0.10;;;14.50;99.90;;;;;;5057297;28;20118;-74
2023/04/30 07:52:29;;;;;;;1.17;1.02;;;14.60;99.90;;;;;;5065095;28;20437;-73
2023/04/30 07:54:55;;;;;;;0.17;0.17;;;14.70;99.90;;;;;;5039182;28;20122;-74
2023/04/30 07:57:21;;;;;;;0.15;0.15;;;14.60;99.90;;;;;;5054022;28;20013;-74
2023/04/30 07:59:47;;;;;;;0.17;0.17;;;14.70;99.90;;;;;;5065557;28;20071;-74
2023/04/30 08:02:13;;;;;;;1.45;1.35;;;14.80;99.90;;;;;;5065673;28;20039;-74
2023/04/30 08:04:39;;;;;;;0.15;0.15;;;15.00;99.90;;;;;;5044308;28;20504;-74
2023/04/30 08:07:04;;;;;;;0.22;0.22;;;15.10;99.90;;;;;;5054641;28;20115;-74
2023/04/30 08:09:30;;;;;;;2.47;2.05;;;15.30;99.90;;;;;;5035209;28;20212;-73
2023/04/30 08:11:56;;;;;;;0.85;0.85;;;15.50;99.90;;;;;;5061631;28;20021;-75
2023/04/30 08:14:22;;;;;;;0.00;0.00;;;15.70;99.90;;;;;;5058247;28;20037;-74
2023/04/30 08:16:48;;;;;;;1.17;0.93;;;15.70;99.90;;;;;;5054763;28;20039;-73
2023/04/30 08:19:13;;;;;;;6.32;0.88;;;15.90;99.90;;;;;;5052954;28;20013;-74
2023/04/30 08:21:40;;;;;;;0.85;0.63;;;16.10;99.90;;;;;;5044948;28;20041;-74
2023/04/30 08:24:06;;;;;;;0.90;0.43;;;16.10;99.90;;;;;;5059639;28;20024;-74
2023/04/30 08:26:32;;;;;;;0.73;0.73;;;16.20;99.90;;;;;;5063719;28;20032;-74
2023/04/30 08:28:58;;;;;;;0.40;0.40;;;16.20;99.90;;;;;;5062433;28;20024;-73
2023/04/30 08:31:23;;;;;;;0.75;0.75;;;16.30;99.90;;;;;;5057259;28;20021;-73
2023/04/30 08:33:49;;;;;;;0.00;0.00;;;16.30;99.90;;;;;;5054829;28;20044;-74
2023/04/30 08:36:15;;;;;;;0.25;0.25;;;16.70;99.90;;;;;;5054761;28;20112;-74
2023/04/30 08:38:41;;;;;;;0.15;0.15;;;16.80;99.90;;;;;;5049063;28;20069;-74
2023/04/30 08:41:15;;;;;;;1.50;0.85;;;16.90;99.90;;;;;;5058120;28;20083;-74
2023/04/30 08:43:43;;;;;;;0.38;0.38;;;16.80;99.90;;;;;;5036370;28;20025;-74
2023/04/30 08:46:12;;;;;;;0.22;0.22;;;17.00;99.90;;;;;;5056046;28;20032;-74
2023/04/30 08:48:39;;;;;;;0.03;0.03;;;17.20;99.90;;;;;;5059538;28;20038;-74
2023/04/30 08:51:06;;;;;;;1.17;1.13;;;17.30;99.90;;;;;;5052772;28;20116;-74
2023/04/30 08:53:35;;;;;;;1.05;0.98;;;17.40;99.90;;;;;;5039891;28;20017;-74
2023/04/30 08:56:01;;;;;;;0.03;0.03;;;17.50;99.90;;;;;;5056548;28;20078;-72
2023/04/30 08:58:27;;;;;;;1.08;0.80;;;17.70;99.90;;;;;;5051881;28;20063;-73
2023/04/30 09:00:53;;;;;;;0.82;0.57;;;17.70;99.60;;;;;;5055371;28;20020;-74
2023/04/30 09:03:20;;;;;;;0.10;0.10;;;17.60;98.90;;;;;;5053542;28;20055;-74
2023/04/30 09:05:46;;;;;;;2.17;1.55;;;17.60;99.00;;;;;;5038863;28;20029;-74
2023/04/30 09:08:19;;;;;;;3.15;1.55;;;17.70;98.70;;;;;;5036141;28;20095;-74
2023/04/30 09:10:45;;;;;;;3.60;1.52;;;17.60;98.40;;;;;;5057396;28;20016;-74
2023/04/30 09:13:11;;;;;;;7.68;1.85;;;17.80;97.80;;;;;;5055128;28;20112;-74
2023/04/30 09:15:40;;;;;;;0.00;0.00;;;17.80;98.60;;;;;;5034874;28;20144;-74
2023/04/30 09:18:17;;;;;;;0.98;0.47;;;18.10;98.50;;;;;;5057634;28;20013;-74
2023/04/30 09:20:59;;;;;;;4.38;1.75;;;18.20;98.40;;;;;;5052074;28;20036;-74
2023/04/30 09:23:25;;;;;;;0.68;0.68;;;18.70;98.10;;;;;;5036782;28;20040;-74
2023/04/30 09:25:51;;;;;;;0.00;0.00;;;19.00;97.00;;;;;;5061850;28;20020;-74
2023/04/30 09:28:22;;;;;;;0.10;0.10;;;19.30;97.10;;;;;;5071109;28;20020;-74
2023/04/30 09:30:49;;;;;;;1.30;0.65;;;19.40;96.30;;;;;;5071491;28;20028;-74
2023/04/30 09:33:14;;;;;;;0.65;0.65;;;19.00;96.30;;;;;;5071708;28;20148;-72
2023/04/30 09:35:41;;;;;;;0.22;0.22;;;18.80;96.60;;;;;;5071588;28;20029;-75
2023/04/30 09:38:23;;;;;;;0.00;0.00;;;18.60;96.50;;;;;;5073477;28;20031;-73
2023/04/30 09:40:49;;;;;;;0.43;0.43;;;18.80;97.20;;;;;;5075830;28;20392;-73
2023/04/30 09:43:15;;;;;;;0.00;0.00;;;19.30;96.40;;;;;;5075432;28;20017;-74
2023/04/30 09:45:48;;;;;;;1.90;1.10;;;19.70;95.80;;;;;;5076881;28;20032;-73
2023/04/30 09:48:19;;;;;;;0.10;0.10;;;19.40;95.10;;;;;;5073091;28;20536;-73
2023/04/30 09:50:46;;;;;;;5.50;1.33;;;19.60;95.30;;;;;;5051594;28;20036;-73
2023/04/30 09:53:13;;;;;;;2.50;2.22;;;19.30;95.10;;;;;;5060897;28;20041;-73
2023/04/30 09:55:43;;;;;;;0.30;0.30;;;19.40;95.70;;;;;;5041045;28;20041;-72
2023/04/30 09:58:09;;;;;;;0.50;0.50;;;19.40;95.40;;;;;;5058070;28;20021;-73
2023/04/30 10:00:36;;;;;;;0.10;0.10;;;19.60;95.30;;;;;;5071128;28;20055;-73
2023/04/30 10:03:09;;;;;;;0.00;0.00;;;19.40;94.80;;;;;;5066230;28;20024;-73
2023/04/30 10:05:45;;;;;;;0.65;0.10;;;19.60;93.50;;;;;;5059506;28;20082;-73
2023/04/30 10:08:33;;;;;;;0.00;0.00;;;19.70;94.50;;;;;;5057226;28;20029;-74
2023/04/30 10:11:02;;;;;;;0.47;0.47;;;19.70;94.40;;;;;;5064373;28;20078;-74
2023/04/30 10:13:32;;;;;;;1.35;0.30;;;20.20;94.40;;;;;;5064955;28;20531;-74
2023/04/30 10:16:03;;;;;;;0.93;0.93;;;20.40;93.80;;;;;;5062328;28;20128;-74
2023/04/30 10:18:35;;;;;;;0.30;0.30;;;20.10;93.20;;;;;;5058660;28;20029;-74
2023/04/30 10:21:09;;;;;;;;;;;20.50;93.50;;;;;;5063185;28;20070;-73
2023/04/30 10:23:36;;;;;;;0.65;0.30;;;20.90;92.20;;;;;;5059530;28;20391;-74
2023/04/30 10:26:03;;;;;;;0.00;0.00;;;21.10;93.00;;;;;;5031965;28;20066;-74
2023/04/30 10:28:31;;;;;;;0.45;0.35;;;21.30;93.10;;;;;;5066606;28;20080;-73
2023/04/30 10:30:57;;;;;;;0.03;0.03;;;21.40;91.60;;;;;;5054165;28;20028;-75
2023/04/30 10:33:52;;;;;;;0.17;0.17;;;21.40;91.20;;;;;;5039143;28;20044;-74
2023/04/30 10:36:47;;;;;;;0.22;0.10;;;21.90;91.20;;;;;;5057833;28;20495;-74
2023/04/30 10:39:17;;;;;;;13.73;3.22;;;21.60;90.70;;;;;;5049268;28;20036;-74
2023/04/30 10:41:47;;;;;;;0.75;0.75;;;21.40;90.50;;;;;;5037657;28;20029;-74
2023/04/30 10:44:14;;;;;;;0.35;0.35;;;21.30;91.10;;;;;;5047272;28;20465;-74
2023/04/30 10:46:41;;;;;;;0.52;0.52;;;21.40;91.30;;;;;;5033830;28;20052;-74
2023/04/30 10:49:07;;;;;;;0.20;0.20;;;21.70;90.20;;;;;;5034423;28;20040;-76
2023/04/30 10:52:00;;;;;;;0.30;0.30;;;21.80;90.20;;;;;;5034538;28;20124;-75
2023/04/30 10:54:31;;;;;;;0.00;0.00;;;21.80;89.50;;;;;;5026891;28;20045;-74
2023/04/30 10:57:13;;;;;;;0.00;0.00;;;21.40;89.40;;;;;;5034413;28;20029;-74
2023/04/30 10:59:44;;;;;;;;;;;21.10;88.50;;;;;;5035191;28;20116;-74
2023/04/30 11:02:11;;;;;;;0.30;0.17;;;20.60;90.20;;;;;;5034549;28;19964;-74
2023/04/30 11:05:05;;;;;;;0.10;0.10;;;21.20;91.40;;;;;;5033792;28;20009;-74
2023/04/30 11:07:31;;;;;;;0.10;0.10;;;21.60;90.60;;;;;;5016540;28;20044;-75
2023/04/30 11:09:57;;;;;;;0.00;0.00;;;21.30;90.00;;;;;;5034631;28;20044;-74
2023/04/30 11:12:28;;;;;;;0.50;0.50;;;22.10;88.70;;;;;;5016870;28;20497;-74
2023/04/30 11:15:00;;;;;;;;;;;21.60;86.90;;;;;;5030341;28;20044;-74
2023/04/30 11:17:27;;;;;;;0.00;0.00;;;21.40;89.60;;;;;;5013703;28;19963;-74
2023/04/30 11:19:57;;;;;;;0.10;0.10;;;21.60;88.20;;;;;;5032951;28;20029;-74
2023/04/30 11:22:24;;;;;;;0.20;0.20;;;21.70;89.60;;;;;;5034150;28;20033;-73
2023/04/30 11:25:08;;;;;;;0.88;0.63;;;22.10;87.70;;;;;;5043914;28;20477;-74
2023/04/30 11:27:36;;;;;;;0.10;0.10;;;21.90;87.30;;;;;;5047975;28;20101;-73
2023/04/30 11:30:08;;;;;;;0.20;0.20;;;21.90;86.60;;;;;;5034544;28;20033;-74
2023/04/30 11:32:36;;;;;;;0.20;0.20;;;21.80;86.20;;;;;;5034256;28;20385;-73
2023/04/30 11:35:03;;;;;;;0.32;0.13;;;21.80;88.10;;;;;;5033783;28;20037;-73
2023/04/30 11:37:35;;;;;;;0.03;0.03;;;22.70;87.20;;;;;;5034049;28;20516;-72
2023/04/30 11:40:06;;;;;;;0.10;0.10;;;22.50;86.50;;;;;;5046017;28;20040;-72
2023/04/30 11:42:38;;;;;;;0.00;0.00;;;22.80;87.50;;;;;;5054138;28;20073;-74
2023/04/30 11:45:07;;;;;;;;;;;23.30;86.10;;;;;;5053498;28;20031;-73
2023/04/30 11:47:44;;;;;;;0.08;0.08;;;23.70;86.40;;;;;;5051861;28;19963;-73
2023/04/30 11:50:13;;;;;;;0.25;0.25;;;23.30;84.70;;;;;;5053310;28;20037;-72
2023/04/30 11:52:40;;;;;;;0.30;0.30;;;23.50;85.10;;;;;;5053561;28;20071;-72
2023/04/30 11:55:14;;;;;;;0.00;0.00;;;24.00;83.40;;;;;;5053343;28;20036;-72
2023/04/30 11:57:45;;;;;;;0.20;0.20;;;23.80;85.00;;;;;;5053849;28;20028;-72
2023/04/30 12:00:18;;;;;;;0.00;0.00;;;22.70;85.40;;;;;;5053039;28;20032;-72
2023/04/30 12:02:46;;;;;;;0.00;0.00;;;22.70;85.70;;;;;;5053492;28;20028;-73
2023/04/30 12:05:17;;;;;;;0.00;0.00;;;22.50;86.10;;;;;;5053702;28;20381;-72
2023/04/30 12:07:50;;;;;;;0.13;0.13;;;23.00;87.00;;;;;;5053856;28;20362;-72
2023/04/30 12:10:20;;;;;;;0.17;0.17;;;24.00;85.60;;;;;;5068813;28;20465;-72
2023/04/30 12:12:48;;;;;;;0.00;0.00;;;23.80;83.60;;;;;;5053654;28;20048;-73
2023/04/30 12:15:25;;;;;;;0.00;0.00;;;24.00;83.20;;;;;;5035717;28;20048;-73
2023/04/30 12:17:52;;;;;;;0.10;0.10;;;23.50;83.90;;;;;;5053448;28;20132;-72
2023/04/30 12:20:20;;;;;;;0.10;0.10;;;23.30;84.80;;;;;;5053421;28;20025;-72
2023/04/30 12:22:47;;;;;;;0.00;0.00;;;23.60;85.80;;;;;;5053318;28;20385;-72
2023/04/30 12:25:18;;;;;;;0.00;0.00;;;24.30;86.00;;;;;;5065898;28;20538;-73
2023/04/30 12:27:50;;;;;;;2.53;1.90;;;24.20;85.20;;;;;;5073268;28;20028;-74
2023/04/30 12:30:20;;;;;;;0.30;0.30;;;24.20;84.50;;;;;;5073312;28;20536;-73
2023/04/30 12:32:49;;;;;;;0.65;0.38;;;24.60;84.30;;;;;;5072368;28;20172;-73
2023/04/30 12:35:17;;;;;;;0.47;0.47;;;24.80;85.00;;;;;;5072566;28;20037;-73
2023/04/30 12:37:50;;;;;;;0.00;0.00;;;24.20;86.20;;;;;;5061871;28;20539;-73
2023/04/30 12:40:19;;;;;;;0.52;0.40;;;24.80;85.40;;;;;;5063568;28;20055;-72
2023/04/30 12:42:47;;;;;;;0.20;0.20;;;24.80;83.40;;;;;;5047811;28;20111;-73
2023/04/30 12:45:43;;;;;;;0.00;0.00;;;24.80;82.50;;;;;;5057631;28;20108;-72
2023/04/30 12:48:09;;;;;;;0.30;0.30;;;25.30;83.30;;;;;;5052607;28;20032;-73
2023/04/30 12:50:34;;;;;;;0.00;0.00;;;24.80;82.40;;;;;;5034854;28;20029;-73
2023/04/30 12:53:04;;;;;;;0.15;0.10;;;24.20;85.00;;;;;;5051909;28;20091;-73
2023/04/30 12:55:30;;;;;;;0.45;0.30;;;24.90;83.70;;;;;;5051505;28;20144;-72